Terminal Aerodrome Forecast
Issued by NWS Wilmington, NC

Home | Current Version | Previous Version | Text Only | Print | Product List | Glossary On
Versions: 1 2 3 4 5 6 7 8 9 10 11 12 13 14 15 16 17 18 19 20 21 22 23 24 25 26 27 28 29 30
313
FTUS42 KILM 250525
TAFLBT
TAF
KLBT 250525Z 2506/2606 21010KT P6SM SCT030 OVC100
     FM250800 22009KT P6SM VCTS BKN025CB
     FM251000 22009KT P6SM BKN050
     FM251700 24016G25KT P6SM SCT045 PROB30 2517/2518 4SM -TSRA
      BKN045CB
     FM251800 24016G25KT P6SM BKN045 PROB30 2518/2523 4SM -TSRA
      OVC015CB
     FM252300 25012KT P6SM SCT060=

USA.gov is the U.S. government's official web portal to all federal, state and local government web resources and services.